Quincy, Illinois
Current Conditions -  °F | °C
As of 4:14 PM on Sunday 25 Jan 2015 (Local Time) from KUIN Reporting Station
Haze Haze  
Wind Chill: 18°   Ceiling: 1000
Heat Index: 31°   Visibility: 4mi
Dew Point: 28°   Wind: 23mph
Humidity: 89%   Direction: 20°NNE
Pressure: 29.86"   Gusts: 32mph
Location:  39.94°N, 91.39°W
Report Text: KUIN 252214Z AUTO 02020G28KT 4SM UP BR BKN010 OVC015 M01/M02 A2986 RMK AO2 PK WND 02028/2209 CIG 007V014 P0000 T10061022
Loading
Personal Weather Stations






























Interactive Weather Map New forecast layout! Learn more

10-Day Weather Forecast

Advertisements
Track Severe Weather on mobile